createdAt,value
2023-02-16T00:00:28.389Z,101319.31
2023-02-16T00:03:21.054Z,101322.11
2023-02-16T00:05:51.355Z,101317.20
2023-02-16T00:08:20.001Z,101319.23
2023-02-16T00:11:08.579Z,101316.58
2023-02-16T00:13:47.863Z,101316.07
2023-02-16T00:16:24.661Z,101318.73
2023-02-16T00:18:53.668Z,101317.86
2023-02-16T00:21:22.505Z,101314.52
2023-02-16T00:23:51.130Z,101314.41
2023-02-16T00:26:25.889Z,101309.34
2023-02-16T00:28:59.305Z,101312.56
2023-02-16T00:31:33.236Z,101311.39
2023-02-16T00:34:34.581Z,101308.52
2023-02-16T00:37:05.771Z,101307.73
2023-02-16T00:39:35.420Z,101303.65
2023-02-16T00:42:07.426Z,101304.64
2023-02-16T00:45:05.615Z,101302.48
2023-02-16T00:47:40.115Z,101297.87
2023-02-16T00:50:15.446Z,101302.89
2023-02-16T00:52:48.610Z,101304.94
2023-02-16T00:55:20.079Z,101302.88
2023-02-16T00:57:53.967Z,101299.80
2023-02-16T01:00:46.808Z,101298.35
2023-02-16T01:03:19.064Z,101298.47
2023-02-16T01:05:47.863Z,101294.82
2023-02-16T01:08:36.454Z,101290.27
2023-02-16T01:11:10.492Z,101281.57
2023-02-16T01:13:48.006Z,101276.33
2023-02-16T01:16:20.957Z,101270.59
2023-02-16T01:18:50.629Z,101267.11
2023-02-16T01:21:23.015Z,101265.82
2023-02-16T01:23:51.457Z,101265.34
2023-02-16T01:26:22.059Z,101264.20
2023-02-16T01:28:50.779Z,101261.44
2023-02-16T01:31:19.491Z,101253.05
2023-02-16T01:33:48.188Z,101251.93
2023-02-16T01:36:24.821Z,101251.36
2023-02-16T01:38:53.205Z,101246.69
2023-02-16T01:41:54.315Z,101244.27
2023-02-16T01:44:27.697Z,101246.45
2023-02-16T01:47:17.100Z,101241.09
2023-02-16T01:49:45.499Z,101244.89
2023-02-16T01:52:34.046Z,101247.42
2023-02-16T01:55:20.297Z,101249.13
2023-02-16T01:58:01.628Z,101249.92
2023-02-16T02:00:50.030Z,101244.79
2023-02-16T02:03:43.324Z,101238.24
2023-02-16T02:06:18.433Z,101232.08
2023-02-16T02:09:12.445Z,101231.48
2023-02-16T02:11:45.624Z,101224.06
2023-02-16T02:14:22.994Z,101224.98
2023-02-16T02:17:01.278Z,101221.30
2023-02-16T02:19:38.789Z,101217.21
2023-02-16T02:22:49.224Z,101217.80
2023-02-16T02:25:28.064Z,101215.13
2023-02-16T02:28:19.995Z,101214.94
2023-02-16T02:30:54.929Z,101213.63
2023-02-16T02:33:48.420Z,101215.23
2023-02-16T02:36:35.060Z,101214.05
2023-02-16T02:39:24.861Z,101216.86
2023-02-16T02:42:05.001Z,101217.66
2023-02-16T02:44:53.486Z,101222.83
2023-02-16T02:47:22.577Z,101218.70
2023-02-16T02:49:53.231Z,101215.54
2023-02-16T02:52:22.931Z,101218.05
2023-02-16T02:55:10.696Z,101216.13
2023-02-16T02:58:06.935Z,101216.23
2023-02-16T03:00:44.501Z,101217.54
2023-02-16T03:03:27.996Z,101214.48
2023-02-16T03:06:08.530Z,101218.26
2023-02-16T03:08:42.054Z,101215.12
2023-02-16T03:11:34.663Z,101205.45
2023-02-16T03:14:09.314Z,101198.45
2023-02-16T03:16:51.578Z,101199.33
2023-02-16T03:19:38.613Z,101198.34
2023-02-16T03:22:25.895Z,101203.55
2023-02-16T03:25:13.958Z,101204.13
2023-02-16T03:28:02.802Z,101207.54
2023-02-16T03:30:31.544Z,101209.90
2023-02-16T03:33:00.161Z,101214.88
2023-02-16T03:35:29.442Z,101216.44
2023-02-16T03:37:58.539Z,101216.66
2023-02-16T03:40:30.592Z,101214.45
2023-02-16T03:43:04.690Z,101211.37
2023-02-16T03:45:40.166Z,101214.26
2023-02-16T03:48:09.334Z,101214.45
2023-02-16T03:50:38.014Z,101216.38
2023-02-16T03:53:09.654Z,101212.54
2023-02-16T03:55:47.653Z,101208.99
2023-02-16T03:58:19.627Z,101209.50
2023-02-16T04:00:48.669Z,101202.23
2023-02-16T04:03:17.831Z,101204.45
2023-02-16T04:05:46.346Z,101199.09
2023-02-16T04:08:14.851Z,101194.02
2023-02-16T04:10:43.961Z,101198.08
2023-02-16T04:13:12.448Z,101202.55
2023-02-16T04:15:41.680Z,101199.45
2023-02-16T04:18:10.314Z,101198.61
2023-02-16T04:20:38.806Z,101198.61
2023-02-16T04:23:07.393Z,101191.38
2023-02-16T04:25:36.047Z,101190.00
2023-02-16T04:28:04.569Z,101192.58
2023-02-16T04:30:33.123Z,101192.61
2023-02-16T04:33:01.805Z,101185.05
2023-02-16T04:35:30.286Z,101187.49
2023-02-16T04:37:58.679Z,101189.83
2023-02-16T04:40:27.285Z,101181.55
2023-02-16T04:42:56.470Z,101177.70
2023-02-16T04:45:24.929Z,101175.48
2023-02-16T04:47:53.424Z,101175.69
2023-02-16T04:50:21.941Z,101173.44
2023-02-16T04:52:50.634Z,101171.52
2023-02-16T04:55:19.059Z,101173.55
2023-02-16T04:57:47.562Z,101174.62
2023-02-16T05:00:16.257Z,101170.19
2023-02-16T05:02:44.629Z,101168.73
2023-02-16T05:05:14.737Z,101171.39
2023-02-16T05:07:43.218Z,101172.63
2023-02-16T05:10:11.715Z,101170.58
2023-02-16T05:12:58.701Z,101168.16
2023-02-16T05:15:27.172Z,101166.95
2023-02-16T05:17:55.567Z,101173.13
2023-02-16T05:20:44.202Z,101173.41
2023-02-16T05:23:12.665Z,101171.13
2023-02-16T05:25:41.139Z,101170.02
2023-02-16T05:28:09.772Z,101177.60
2023-02-16T05:30:38.293Z,101175.86
2023-02-16T05:33:06.721Z,101174.08
2023-02-16T05:35:35.648Z,101178.05
2023-02-16T05:38:04.193Z,101180.05
2023-02-16T05:40:32.696Z,101179.50
2023-02-16T05:43:01.597Z,101177.88
2023-02-16T05:45:30.225Z,101182.36
2023-02-16T05:47:58.644Z,101178.59
2023-02-16T05:50:27.163Z,101183.27
2023-02-16T05:52:55.562Z,101185.95
2023-02-16T05:55:24.060Z,101188.01
2023-02-16T05:57:52.585Z,101189.12
2023-02-16T06:00:21.295Z,101189.54
2023-02-16T06:02:49.746Z,101191.20
2023-02-16T06:05:18.530Z,101194.27
2023-02-16T06:07:47.274Z,101191.38
2023-02-16T06:10:16.563Z,101187.84
2023-02-16T06:12:45.643Z,101187.44
2023-02-16T06:15:14.067Z,101183.38
2023-02-16T06:17:44.817Z,101182.52
2023-02-16T06:20:13.723Z,101188.33
2023-02-16T06:22:42.243Z,101189.98
2023-02-16T06:25:10.724Z,101191.00
2023-02-16T06:27:39.301Z,101187.65
2023-02-16T06:30:08.903Z,101187.85
2023-02-16T06:32:38.712Z,101192.42
2023-02-16T06:35:07.563Z,101194.78
2023-02-16T06:37:36.188Z,101194.63
2023-02-16T06:40:05.250Z,101195.02
2023-02-16T06:42:33.755Z,101196.77
2023-02-16T06:45:03.120Z,101203.57
2023-02-16T06:47:31.778Z,101205.38
2023-02-16T06:50:00.460Z,101199.77
2023-02-16T06:52:29.011Z,101196.84
2023-02-16T06:54:57.555Z,101192.90
2023-02-16T06:57:26.104Z,101188.07
2023-02-16T06:59:56.577Z,101183.48
2023-02-16T07:02:25.018Z,101179.93
2023-02-16T07:04:54.897Z,101174.99
2023-02-16T07:07:24.384Z,101175.11
2023-02-16T07:09:52.904Z,101166.25
2023-02-16T07:12:21.695Z,101167.65
2023-02-16T07:14:50.503Z,101165.57
2023-02-16T07:17:18.946Z,101162.73
2023-02-16T07:19:47.829Z,101158.57
2023-02-16T07:22:17.823Z,101159.06
2023-02-16T07:24:46.366Z,101160.36
2023-02-16T07:27:15.134Z,101164.52
2023-02-16T07:29:44.797Z,101159.69
2023-02-16T07:32:13.480Z,101151.29
2023-02-16T07:34:42.275Z,101157.13
2023-02-16T07:37:10.798Z,101155.70
2023-02-16T07:39:39.238Z,101159.14
2023-02-16T07:42:07.741Z,101163.56
2023-02-16T07:44:36.144Z,101167.08
2023-02-16T07:47:05.382Z,101169.48
2023-02-16T07:49:33.865Z,101171.54
2023-02-16T07:52:02.225Z,101162.50
2023-02-16T07:54:32.802Z,101160.56
2023-02-16T07:57:01.541Z,101155.97
2023-02-16T07:59:30.164Z,101158.88
2023-02-16T08:01:58.689Z,101159.20
2023-02-16T08:04:27.467Z,101159.59
2023-02-16T08:06:55.942Z,101160.28
2023-02-16T08:09:24.422Z,101151.92
2023-02-16T08:11:52.921Z,101154.23
2023-02-16T08:14:21.297Z,101155.79
2023-02-16T08:16:52.881Z,101152.23
2023-02-16T08:19:22.643Z,101149.10
2023-02-16T08:21:51.680Z,101157.52
2023-02-16T08:24:20.048Z,101161.87
2023-02-16T08:26:50.154Z,101164.27
2023-02-16T08:29:18.944Z,101163.41
2023-02-16T08:31:48.319Z,101164.42
2023-02-16T08:34:18.858Z,101166.24
2023-02-16T08:36:51.686Z,101166.85
2023-02-16T08:39:21.721Z,101164.38
2023-02-16T08:41:50.841Z,101167.67
2023-02-16T08:44:21.088Z,101168.88
2023-02-16T08:46:51.351Z,101166.98
2023-02-16T08:49:22.357Z,101162.91
2023-02-16T08:51:54.999Z,101168.64
2023-02-16T08:54:30.616Z,101169.95
2023-02-16T08:57:00.269Z,101168.48
2023-02-16T08:59:29.223Z,101171.26
2023-02-16T09:01:59.387Z,101173.85
2023-02-16T09:04:29.840Z,101168.52
2023-02-16T09:06:59.719Z,101178.79
2023-02-16T09:09:28.871Z,101178.88
2023-02-16T09:11:58.423Z,101177.25
2023-02-16T09:14:28.213Z,101174.64
2023-02-16T09:16:58.410Z,101176.06
2023-02-16T09:19:28.523Z,101179.16
2023-02-16T09:21:57.238Z,101183.24
2023-02-16T09:24:27.183Z,101190.17
2023-02-16T09:26:55.817Z,101197.11
2023-02-16T09:29:24.470Z,101189.90
2023-02-16T09:31:55.114Z,101194.10
2023-02-16T09:34:24.733Z,101192.84
2023-02-16T09:36:54.250Z,101191.71
2023-02-16T09:39:23.008Z,101193.06
2023-02-16T09:42:18.978Z,101196.02
2023-02-16T09:44:50.375Z,101193.30
2023-02-16T09:47:26.533Z,101192.38
2023-02-16T09:49:58.722Z,101187.67
2023-02-16T09:52:43.073Z,101183.51
2023-02-16T09:55:15.394Z,101188.19
2023-02-16T09:58:05.608Z,101188.17
2023-02-16T10:00:34.080Z,101183.36
2023-02-16T10:03:37.588Z,101188.48
2023-02-16T10:06:24.444Z,101176.29
2023-02-16T10:09:08.258Z,101176.65
2023-02-16T10:11:49.190Z,101172.24
2023-02-16T10:14:41.508Z,101175.52
2023-02-16T10:17:28.778Z,101173.55
2023-02-16T10:20:04.818Z,101174.79
2023-02-16T10:22:40.618Z,101168.85
2023-02-16T10:25:15.316Z,101166.76
2023-02-16T10:27:49.303Z,101167.85
2023-02-16T10:30:23.441Z,101167.31
2023-02-16T10:32:56.732Z,101167.68
2023-02-16T10:35:52.609Z,101168.02
2023-02-16T10:38:47.409Z,101162.10
2023-02-16T10:41:33.349Z,101165.26
2023-02-16T10:44:01.841Z,101157.95
2023-02-16T10:46:37.162Z,101149.47
2023-02-16T10:49:05.668Z,101150.94
2023-02-16T10:51:38.474Z,101150.08
2023-02-16T10:54:28.513Z,101145.27
2023-02-16T10:57:07.547Z,101147.67
2023-02-16T10:59:47.421Z,101141.26
2023-02-16T11:02:27.979Z,101142.52
2023-02-16T11:04:58.837Z,101137.09
2023-02-16T11:07:30.438Z,101135.95
2023-02-16T11:10:03.133Z,101133.26
2023-02-16T11:12:43.401Z,101131.48
2023-02-16T11:15:19.076Z,101129.11
2023-02-16T11:17:51.702Z,101125.86
2023-02-16T11:20:42.440Z,101125.29
2023-02-16T11:23:15.690Z,101122.59
2023-02-16T11:26:00.720Z,101112.38
2023-02-16T11:28:46.168Z,101116.91
2023-02-16T11:31:29.627Z,101115.84
2023-02-16T11:34:06.684Z,101118.11
2023-02-16T11:36:47.159Z,101112.27
2023-02-16T11:39:27.374Z,101115.34
2023-02-16T11:42:01.691Z,101111.20
2023-02-16T11:44:36.083Z,101118.04
2023-02-16T11:47:26.345Z,101116.41
2023-02-16T11:50:09.989Z,101112.54
2023-02-16T11:52:38.403Z,101108.27
2023-02-16T11:55:21.294Z,101102.92
2023-02-16T11:57:49.933Z,101104.63
2023-02-16T12:00:23.510Z,101112.13
2023-02-16T12:03:13.849Z,101104.50
2023-02-16T12:05:45.973Z,101104.30
2023-02-16T12:08:58.821Z,101102.73
2023-02-16T12:12:17.038Z,101096.70
2023-02-16T12:15:15.299Z,101094.11
2023-02-16T12:18:15.278Z,101098.19
2023-02-16T12:21:07.580Z,101092.09
2023-02-16T12:23:45.535Z,101092.07
2023-02-16T12:26:45.880Z,101083.14
2023-02-16T12:29:35.125Z,101077.54
2023-02-16T12:32:24.531Z,101078.59
2023-02-16T12:35:14.793Z,101083.35
2023-02-16T12:37:54.941Z,101072.97
2023-02-16T12:41:05.094Z,101073.20
2023-02-16T12:43:40.728Z,101067.79
2023-02-16T12:46:18.659Z,101065.35
2023-02-16T12:48:54.184Z,101065.75
2023-02-16T12:51:35.927Z,101063.39
2023-02-16T12:54:23.435Z,101060.85
2023-02-16T12:57:01.162Z,101059.27
2023-02-16T12:59:39.545Z,101059.45
2023-02-16T13:02:22.481Z,101055.17
2023-02-16T13:05:01.969Z,101056.52
2023-02-16T13:07:40.088Z,101059.91
2023-02-16T13:10:11.699Z,101054.95
2023-02-16T13:12:48.270Z,101044.44
2023-02-16T13:15:34.446Z,101042.71
2023-02-16T13:18:17.822Z,101040.69
2023-02-16T13:20:51.230Z,101037.38
2023-02-16T13:23:50.714Z,101034.76
2023-02-16T13:26:25.278Z,101031.91
2023-02-16T13:29:11.043Z,101029.63
2023-02-16T13:32:00.956Z,101027.62
2023-02-16T13:35:01.653Z,101025.73
2023-02-16T13:38:02.444Z,101023.77
2023-02-16T13:41:00.100Z,101020.23
2023-02-16T13:43:32.098Z,101019.14
2023-02-16T13:46:08.576Z,101017.57
2023-02-16T13:48:47.538Z,101018.24
2023-02-16T13:51:21.090Z,101010.04
2023-02-16T13:54:00.673Z,101010.86
2023-02-16T13:56:29.730Z,101013.55
2023-02-16T13:59:19.967Z,101017.81
2023-02-16T14:01:55.217Z,101014.56
2023-02-16T14:04:23.758Z,101008.66
2023-02-16T14:07:18.596Z,101007.06
2023-02-16T14:09:49.824Z,101007.15
2023-02-16T14:12:31.799Z,101001.89
2023-02-16T14:15:04.546Z,101000.27
2023-02-16T14:17:35.609Z,100998.15
2023-02-16T14:20:23.952Z,101000.46
2023-02-16T14:22:57.945Z,101002.58
2023-02-16T14:25:37.130Z,101006.44
2023-02-16T14:28:24.504Z,101009.45
2023-02-16T14:30:59.602Z,101005.92
2023-02-16T14:33:47.291Z,101008.64
2023-02-16T14:36:19.539Z,101003.92
2023-02-16T14:38:52.283Z,101001.68
2023-02-16T14:41:23.482Z,101002.24
2023-02-16T14:43:59.169Z,101004.39
2023-02-16T14:46:48.323Z,101003.83
2023-02-16T14:49:35.629Z,101004.83
2023-02-16T14:52:25.419Z,101002.12
2023-02-16T14:55:06.086Z,101004.84
2023-02-16T14:57:34.562Z,101002.36
2023-02-16T15:00:20.122Z,101002.56
2023-02-16T15:02:56.685Z,100995.55
2023-02-16T15:05:30.162Z,100993.42
2023-02-16T15:08:14.153Z,100989.71
2023-02-16T15:10:46.794Z,100991.65
2023-02-16T15:13:43.179Z,100990.60
2023-02-16T15:16:16.721Z,100988.15
2023-02-16T15:18:48.792Z,100987.30
2023-02-16T15:21:24.447Z,100983.85
2023-02-16T15:23:58.190Z,100981.00
2023-02-16T15:26:31.493Z,100980.84
2023-02-16T15:29:04.011Z,100984.48
2023-02-16T15:31:38.427Z,100984.09
2023-02-16T15:34:13.925Z,100982.11
2023-02-16T15:36:45.526Z,100986.86
2023-02-16T15:39:17.671Z,100989.02
2023-02-16T15:41:50.459Z,100989.90
2023-02-16T15:44:34.584Z,100988.55
2023-02-16T15:47:12.283Z,100989.63
2023-02-16T15:49:41.792Z,100988.27
2023-02-16T15:52:20.199Z,100989.63
2023-02-16T15:54:50.229Z,100985.04
2023-02-16T15:57:36.435Z,100979.48
2023-02-16T16:00:19.687Z,100981.53
2023-02-16T16:02:54.889Z,100983.90
2023-02-16T16:05:36.594Z,100979.64
2023-02-16T16:08:07.359Z,100973.61
2023-02-16T16:10:39.930Z,100975.09
2023-02-16T16:13:26.042Z,100975.75
2023-02-16T16:16:07.293Z,100975.87
2023-02-16T16:18:39.487Z,100973.49
2023-02-16T16:21:16.292Z,100973.64
2023-02-16T16:24:02.772Z,100975.23
2023-02-16T16:26:36.131Z,100978.23
2023-02-16T16:29:05.480Z,100978.98
2023-02-16T16:31:39.870Z,100978.52
2023-02-16T16:34:12.443Z,100981.45
2023-02-16T16:36:53.710Z,100982.26
2023-02-16T16:39:26.781Z,100986.02
2023-02-16T16:41:57.984Z,100988.18
2023-02-16T16:44:37.078Z,100986.77
2023-02-16T16:47:41.558Z,100987.11
2023-02-16T16:50:10.325Z,100983.29
2023-02-16T16:52:45.337Z,100979.24
2023-02-16T16:55:21.718Z,100974.41
2023-02-16T16:57:52.443Z,100975.70
2023-02-16T17:00:23.063Z,100977.21
2023-02-16T17:02:51.555Z,100971.98
2023-02-16T17:05:20.563Z,100973.63
2023-02-16T17:07:50.450Z,100969.64
2023-02-16T17:10:21.251Z,100967.85
2023-02-16T17:12:54.132Z,100965.31
2023-02-16T17:15:38.257Z,100964.77
2023-02-16T17:18:07.838Z,100965.60
2023-02-16T17:20:36.308Z,100972.58
2023-02-16T17:23:05.092Z,100975.36
2023-02-16T17:25:35.261Z,100969.05
2023-02-16T17:28:04.243Z,100972.55
2023-02-16T17:30:33.288Z,100973.04
2023-02-16T17:33:03.042Z,100976.11
2023-02-16T17:35:31.944Z,100977.41
2023-02-16T17:38:07.614Z,100979.60
2023-02-16T17:40:36.085Z,100975.27
2023-02-16T17:43:11.519Z,100969.26
2023-02-16T17:45:41.339Z,100967.17
2023-02-16T17:48:26.497Z,100971.01
2023-02-16T17:50:58.018Z,100971.52
2023-02-16T17:53:28.080Z,100973.49
2023-02-16T17:55:58.018Z,100972.95
2023-02-16T17:58:26.550Z,100970.28
2023-02-16T18:00:55.865Z,100972.39
2023-02-16T18:03:25.363Z,100969.64
2023-02-16T18:05:54.135Z,100970.55
2023-02-16T18:08:23.179Z,100972.40
2023-02-16T18:11:02.135Z,100970.21
2023-02-16T18:13:32.219Z,100973.73
2023-02-16T18:16:07.435Z,100979.96
2023-02-16T18:18:39.490Z,100974.42
2023-02-16T18:21:08.117Z,100973.27
2023-02-16T18:23:36.728Z,100971.52
2023-02-16T18:26:06.189Z,100971.67
2023-02-16T18:28:35.427Z,100969.66
2023-02-16T18:31:07.613Z,100969.07
2023-02-16T18:33:36.302Z,100970.77
2023-02-16T18:36:05.491Z,100972.86
2023-02-16T18:38:34.587Z,100966.41
2023-02-16T18:41:03.068Z,100966.27
2023-02-16T18:43:31.828Z,100968.83
2023-02-16T18:46:05.754Z,100963.99
2023-02-16T18:48:34.570Z,100963.44
2023-02-16T18:51:08.226Z,100965.32
2023-02-16T18:53:40.719Z,100965.79
2023-02-16T18:56:11.357Z,100966.79
2023-02-16T18:58:39.877Z,100964.20
2023-02-16T19:01:16.715Z,100963.61
2023-02-16T19:03:45.238Z,100958.34
2023-02-16T19:06:13.798Z,100960.83
2023-02-16T19:08:42.323Z,100961.09
2023-02-16T19:11:10.798Z,100961.70
2023-02-16T19:13:39.206Z,100959.75
2023-02-16T19:16:07.994Z,100960.45
2023-02-16T19:18:36.763Z,100957.82
2023-02-16T19:21:07.693Z,100953.98
2023-02-16T19:23:37.227Z,100956.51
2023-02-16T19:26:08.178Z,100955.43
2023-02-16T19:28:37.142Z,100949.88
2023-02-16T19:31:07.907Z,100950.04
2023-02-16T19:33:36.602Z,100954.75
2023-02-16T19:36:07.537Z,100954.41
2023-02-16T19:38:37.575Z,100955.48
2023-02-16T19:41:15.150Z,100954.65
2023-02-16T19:43:43.818Z,100950.73
2023-02-16T19:46:12.971Z,100949.97
2023-02-16T19:48:42.529Z,100953.17
2023-02-16T19:51:11.131Z,100950.77
2023-02-16T19:53:41.090Z,100953.56
2023-02-16T19:56:16.081Z,100950.19
2023-02-16T19:58:45.296Z,100950.41
2023-02-16T20:01:23.344Z,100950.88
2023-02-16T20:03:53.357Z,100947.49
2023-02-16T20:06:29.821Z,100949.42
2023-02-16T20:09:00.114Z,100944.08
2023-02-16T20:11:30.123Z,100947.74
2023-02-16T20:13:59.585Z,100946.89
2023-02-16T20:16:29.462Z,100949.50
2023-02-16T20:18:59.096Z,100946.29
2023-02-16T20:21:29.057Z,100946.27
2023-02-16T20:24:00.804Z,100949.38
2023-02-16T20:26:34.337Z,100948.29
2023-02-16T20:29:05.291Z,100954.84
2023-02-16T20:31:56.228Z,100957.27
2023-02-16T20:34:27.677Z,100955.85
2023-02-16T20:36:56.589Z,100954.57
2023-02-16T20:39:25.285Z,100954.76
2023-02-16T20:41:54.376Z,100954.70
2023-02-16T20:44:22.936Z,100954.19
2023-02-16T20:46:51.729Z,100951.05
2023-02-16T20:49:20.367Z,100951.52
2023-02-16T20:51:48.806Z,100951.45
2023-02-16T20:54:17.407Z,100955.02
2023-02-16T20:56:46.171Z,100952.30
2023-02-16T20:59:14.632Z,100953.04
2023-02-16T21:01:47.104Z,100954.77
2023-02-16T21:04:18.136Z,100948.13
2023-02-16T21:06:46.853Z,100951.06
2023-02-16T21:09:16.232Z,100951.88
2023-02-16T21:11:44.737Z,100954.39
2023-02-16T21:14:13.888Z,100950.25
2023-02-16T21:16:42.861Z,100950.05
2023-02-16T21:19:22.164Z,100949.80
2023-02-16T21:21:52.925Z,100949.52
2023-02-16T21:24:21.535Z,100946.23
2023-02-16T21:26:50.179Z,100940.02
2023-02-16T21:29:19.319Z,100936.30
2023-02-16T21:31:47.883Z,100934.23
2023-02-16T21:34:16.445Z,100924.25
2023-02-16T21:36:44.974Z,100927.56
2023-02-16T21:39:13.458Z,100927.41
2023-02-16T21:41:41.939Z,100921.42
2023-02-16T21:44:16.378Z,100919.89
2023-02-16T21:46:47.012Z,100917.93
2023-02-16T21:49:18.161Z,100913.98
2023-02-16T21:51:48.095Z,100911.13
2023-02-16T21:54:39.358Z,100908.52
2023-02-16T21:57:07.895Z,100904.52
2023-02-16T21:59:36.355Z,100901.07
2023-02-16T22:02:04.900Z,100899.89
2023-02-16T22:04:33.313Z,100900.81
2023-02-16T22:07:02.145Z,100900.30
2023-02-16T22:09:30.686Z,100897.02
2023-02-16T22:11:59.125Z,100895.73
2023-02-16T22:14:27.562Z,100894.27
2023-02-16T22:16:56.096Z,100894.21
2023-02-16T22:19:24.568Z,100896.23
2023-02-16T22:21:53.085Z,100893.70
2023-02-16T22:24:21.841Z,100890.48
2023-02-16T22:26:50.878Z,100888.02
2023-02-16T22:29:19.369Z,100887.46
2023-02-16T22:31:49.646Z,100892.31
2023-02-16T22:34:20.531Z,100890.17
2023-02-16T22:36:49.549Z,100890.19
2023-02-16T22:39:19.532Z,100889.77
2023-02-16T22:41:51.601Z,100889.27
2023-02-16T22:44:20.877Z,100889.77
2023-02-16T22:46:49.496Z,100891.08
2023-02-16T22:49:18.466Z,100886.29
2023-02-16T22:51:47.392Z,100883.89
2023-02-16T22:54:16.478Z,100876.16
2023-02-16T22:56:45.207Z,100870.56
2023-02-16T22:59:13.674Z,100869.25
2023-02-16T23:01:42.937Z,100872.11
2023-02-16T23:04:15.841Z,100871.86
2023-02-16T23:06:45.369Z,100868.34
2023-02-16T23:09:22.527Z,100863.37
2023-02-16T23:11:51.050Z,100860.77
2023-02-16T23:14:20.968Z,100858.45
2023-02-16T23:16:53.429Z,100857.59
2023-02-16T23:19:26.468Z,100858.32
2023-02-16T23:21:55.543Z,100856.31
2023-02-16T23:24:24.524Z,100855.52
2023-02-16T23:26:53.505Z,100858.00
2023-02-16T23:29:22.105Z,100861.48
2023-02-16T23:31:51.907Z,100859.63
2023-02-16T23:34:20.969Z,100861.11
2023-02-16T23:36:49.812Z,100860.09
2023-02-16T23:39:19.192Z,100860.20
2023-02-16T23:41:48.064Z,100861.32
2023-02-16T23:44:16.699Z,100861.70
2023-02-16T23:46:45.207Z,100864.78
2023-02-16T23:49:13.714Z,100865.53
2023-02-16T23:51:42.934Z,100868.14
2023-02-16T23:54:11.704Z,100871.08
2023-02-16T23:56:41.007Z,100867.29
2023-02-16T23:59:09.947Z,100862.96
